VA20 weather

SRMC Heliport
Petersburg, Virginia, United States

Public forecast

Using degrees Fahrenheit for public forecast. Weather courtesy of forecast.io.

METAR (pilot weather report)

Closest report is Dinwiddie County Airport, 5.6 nm (10.4 km) WSW. Retrieved 2019/09/18 18:35 UTC (17 minutes ago):

KPTB 181835Z AUTO 04007KT 10SM BKN055 BKN065 26/09 A3017 RMK AO2 T02560088

TAF (pilot weather forecast)

Closest forecast is Richmond International Airport, 17.7 nm (32.8 km) NNE. Retrieved 2019/09/18 18:22 UTC (30 minutes ago):

TAF KRIC 181720Z 1818/1918 05009KT P6SM SCT050 FM182200 VRB05KT P6SM SKC